sensor_id;sensor_type;location;lat;lon;timestamp;pressure;altitude;pressure_sealevel;temperature;humidity
68822;BME280;55834;50.870;4.606;2023-07-16T00:00:45;100272.78;;;17.70;55.54
68822;BME280;55834;50.870;4.606;2023-07-16T00:03:10;100281.22;;;17.23;56.64
68822;BME280;55834;50.870;4.606;2023-07-16T00:05:36;100278.59;;;17.35;56.63
68822;BME280;55834;50.870;4.606;2023-07-16T00:08:02;100280.47;;;17.48;55.47
68822;BME280;55834;50.870;4.606;2023-07-16T00:10:27;100276.59;;;17.39;55.46
68822;BME280;55834;50.870;4.606;2023-07-16T00:12:53;100288.44;;;17.35;55.63
68822;BME280;55834;50.870;4.606;2023-07-16T00:15:18;100274.41;;;17.46;56.30
68822;BME280;55834;50.870;4.606;2023-07-16T00:17:43;100278.00;;;17.45;55.81
68822;BME280;55834;50.870;4.606;2023-07-16T00:20:09;100280.56;;;17.61;55.66
68822;BME280;55834;50.870;4.606;2023-07-16T00:22:35;100275.63;;;17.54;55.02
68822;BME280;55834;50.870;4.606;2023-07-16T00:25:04;100278.31;;;17.40;55.45
68822;BME280;55834;50.870;4.606;2023-07-16T00:27:30;100283.47;;;17.29;55.01
68822;BME280;55834;50.870;4.606;2023-07-16T00:29:55;100280.63;;;17.32;55.84
68822;BME280;55834;50.870;4.606;2023-07-16T00:32:20;100281.69;;;17.15;55.31
68822;BME280;55834;50.870;4.606;2023-07-16T00:34:46;100285.00;;;17.19;55.50
68822;BME280;55834;50.870;4.606;2023-07-16T00:37:11;100283.09;;;17.21;54.70
68822;BME280;55834;50.870;4.606;2023-07-16T00:39:36;100289.03;;;17.26;55.10
68822;BME280;55834;50.870;4.606;2023-07-16T00:42:02;100288.47;;;17.06;54.11
68822;BME280;55834;50.870;4.606;2023-07-16T00:44:27;100283.13;;;17.06;55.06
68822;BME280;55834;50.870;4.606;2023-07-16T00:46:53;100281.59;;;16.88;54.33
68822;BME280;55834;50.870;4.606;2023-07-16T00:49:18;100289.25;;;16.64;56.82
68822;BME280;55834;50.870;4.606;2023-07-16T00:51:44;100294.69;;;16.62;56.19
68822;BME280;55834;50.870;4.606;2023-07-16T00:54:09;100290.50;;;16.73;55.62
68822;BME280;55834;50.870;4.606;2023-07-16T00:56:37;100295.09;;;16.85;55.36
68822;BME280;55834;50.870;4.606;2023-07-16T00:59:02;100299.81;;;16.51;56.58
68822;BME280;55834;50.870;4.606;2023-07-16T01:01:27;100301.50;;;16.38;56.26
68822;BME280;55834;50.870;4.606;2023-07-16T01:03:53;100309.63;;;16.20;57.62
68822;BME280;55834;50.870;4.606;2023-07-16T01:06:36;100301.25;;;15.96;57.30
68822;BME280;55834;50.870;4.606;2023-07-16T01:09:07;100302.91;;;16.13;56.80
68822;BME280;55834;50.870;4.606;2023-07-16T01:11:34;100301.13;;;16.14;57.47
68822;BME280;55834;50.870;4.606;2023-07-16T01:14:01;100303.97;;;16.27;56.73
68822;BME280;55834;50.870;4.606;2023-07-16T01:16:27;100302.59;;;16.19;56.22
68822;BME280;55834;50.870;4.606;2023-07-16T01:18:52;100298.22;;;16.02;56.00
68822;BME280;55834;50.870;4.606;2023-07-16T01:21:23;100304.84;;;15.95;56.94
68822;BME280;55834;50.870;4.606;2023-07-16T01:24:27;100305.50;;;15.69;55.29
68822;BME280;55834;50.870;4.606;2023-07-16T01:27:10;100307.44;;;15.33;55.98
68822;BME280;55834;50.870;4.606;2023-07-16T01:29:49;100306.34;;;15.38;55.45
68822;BME280;55834;50.870;4.606;2023-07-16T01:32:17;100310.97;;;15.66;55.44
68822;BME280;55834;50.870;4.606;2023-07-16T01:34:42;100315.94;;;15.88;53.91
68822;BME280;55834;50.870;4.606;2023-07-16T01:37:08;100316.97;;;16.01;52.45
68822;BME280;55834;50.870;4.606;2023-07-16T01:39:34;100312.50;;;15.86;54.44
68822;BME280;55834;50.870;4.606;2023-07-16T01:42:00;100315.88;;;15.73;54.17
68822;BME280;55834;50.870;4.606;2023-07-16T01:44:25;100323.56;;;15.94;53.95
68822;BME280;55834;50.870;4.606;2023-07-16T01:47:04;100323.75;;;15.10;54.74
68822;BME280;55834;50.870;4.606;2023-07-16T01:49:30;100334.00;;;15.67;54.49
68822;BME280;55834;50.870;4.606;2023-07-16T01:51:56;100325.81;;;15.54;54.65
68822;BME280;55834;50.870;4.606;2023-07-16T01:54:21;100337.41;;;15.37;54.14
68822;BME280;55834;50.870;4.606;2023-07-16T01:56:46;100335.34;;;15.42;54.89
68822;BME280;55834;50.870;4.606;2023-07-16T01:59:12;100339.47;;;15.48;54.60
68822;BME280;55834;50.870;4.606;2023-07-16T02:01:37;100334.41;;;15.43;54.90
68822;BME280;55834;50.870;4.606;2023-07-16T02:04:02;100337.75;;;15.13;54.69
68822;BME280;55834;50.870;4.606;2023-07-16T02:06:28;100333.13;;;15.34;55.28
68822;BME280;55834;50.870;4.606;2023-07-16T02:08:53;100339.72;;;15.59;53.62
68822;BME280;55834;50.870;4.606;2023-07-16T02:11:19;100342.59;;;15.23;54.04
68822;BME280;55834;50.870;4.606;2023-07-16T02:13:44;100351.00;;;14.98;54.57
68822;BME280;55834;50.870;4.606;2023-07-16T02:16:09;100346.88;;;15.43;53.90
68822;BME280;55834;50.870;4.606;2023-07-16T02:18:35;100362.78;;;14.76;54.86
68822;BME280;55834;50.870;4.606;2023-07-16T02:21:00;100360.34;;;14.72;54.76
68822;BME280;55834;50.870;4.606;2023-07-16T02:23:27;100365.88;;;14.50;55.24
68822;BME280;55834;50.870;4.606;2023-07-16T02:25:52;100372.78;;;14.54;54.65
68822;BME280;55834;50.870;4.606;2023-07-16T02:28:17;100367.00;;;14.63;55.08
68822;BME280;55834;50.870;4.606;2023-07-16T02:30:43;100370.81;;;14.21;55.84
68822;BME280;55834;50.870;4.606;2023-07-16T02:33:08;100371.56;;;14.25;55.17
68822;BME280;55834;50.870;4.606;2023-07-16T02:35:34;100369.88;;;14.58;53.86
68822;BME280;55834;50.870;4.606;2023-07-16T02:37:59;100363.94;;;14.88;53.29
68822;BME280;55834;50.870;4.606;2023-07-16T02:40:24;100366.94;;;14.28;54.09
68822;BME280;55834;50.870;4.606;2023-07-16T02:42:50;100368.16;;;14.75;52.70
68822;BME280;55834;50.870;4.606;2023-07-16T02:45:15;100375.44;;;14.17;53.54
68822;BME280;55834;50.870;4.606;2023-07-16T02:47:40;100383.88;;;14.26;53.64
68822;BME280;55834;50.870;4.606;2023-07-16T02:50:06;100381.38;;;14.59;52.97
68822;BME280;55834;50.870;4.606;2023-07-16T02:52:32;100372.94;;;14.68;51.83
68822;BME280;55834;50.870;4.606;2023-07-16T02:54:57;100366.50;;;14.89;51.19
68822;BME280;55834;50.870;4.606;2023-07-16T02:57:22;100369.47;;;14.83;51.78
68822;BME280;55834;50.870;4.606;2023-07-16T02:59:48;100378.84;;;14.56;52.94
68822;BME280;55834;50.870;4.606;2023-07-16T03:02:13;100375.59;;;14.68;52.54
68822;BME280;55834;50.870;4.606;2023-07-16T03:04:38;100379.97;;;14.52;52.68
68822;BME280;55834;50.870;4.606;2023-07-16T03:07:05;100375.03;;;14.61;52.44
68822;BME280;55834;50.870;4.606;2023-07-16T03:09:31;100377.34;;;13.96;52.54
68822;BME280;55834;50.870;4.606;2023-07-16T03:11:56;100381.31;;;14.24;52.94
68822;BME280;55834;50.870;4.606;2023-07-16T03:14:21;100380.34;;;14.61;51.88
68822;BME280;55834;50.870;4.606;2023-07-16T03:16:47;100385.28;;;14.15;53.33
68822;BME280;55834;50.870;4.606;2023-07-16T03:19:12;100377.91;;;14.03;52.31
68822;BME280;55834;50.870;4.606;2023-07-16T03:21:37;100387.91;;;13.98;52.97
68822;BME280;55834;50.870;4.606;2023-07-16T03:24:03;100384.47;;;14.50;52.25
68822;BME280;55834;50.870;4.606;2023-07-16T03:26:29;100399.59;;;14.30;51.74
68822;BME280;55834;50.870;4.606;2023-07-16T03:28:54;100398.44;;;14.36;52.32
68822;BME280;55834;50.870;4.606;2023-07-16T03:31:20;100400.00;;;14.40;52.36
68822;BME280;55834;50.870;4.606;2023-07-16T03:33:45;100401.44;;;14.11;52.78
68822;BME280;55834;50.870;4.606;2023-07-16T03:36:11;100406.66;;;14.12;53.00
68822;BME280;55834;50.870;4.606;2023-07-16T03:38:36;100404.97;;;14.48;52.12
68822;BME280;55834;50.870;4.606;2023-07-16T03:41:01;100412.31;;;14.41;52.52
68822;BME280;55834;50.870;4.606;2023-07-16T03:43:27;100411.63;;;13.82;54.09
68822;BME280;55834;50.870;4.606;2023-07-16T03:45:52;100411.22;;;13.72;54.85
68822;BME280;55834;50.870;4.606;2023-07-16T03:48:18;100422.53;;;13.95;53.93
68822;BME280;55834;50.870;4.606;2023-07-16T03:50:43;100434.69;;;14.18;53.17
68822;BME280;55834;50.870;4.606;2023-07-16T03:53:08;100424.25;;;13.58;54.53
68822;BME280;55834;50.870;4.606;2023-07-16T03:55:33;100428.56;;;13.80;53.68
68822;BME280;55834;50.870;4.606;2023-07-16T03:57:59;100436.13;;;14.25;52.91
68822;BME280;55834;50.870;4.606;2023-07-16T04:00:24;100438.03;;;13.85;54.20
68822;BME280;55834;50.870;4.606;2023-07-16T04:02:50;100438.44;;;13.95;53.79
68822;BME280;55834;50.870;4.606;2023-07-16T04:05:15;100433.44;;;14.08;53.89
68822;BME280;55834;50.870;4.606;2023-07-16T04:07:40;100431.06;;;14.02;53.60
68822;BME280;55834;50.870;4.606;2023-07-16T04:10:06;100436.44;;;14.19;53.47
68822;BME280;55834;50.870;4.606;2023-07-16T04:12:32;100443.50;;;13.02;55.71
68822;BME280;55834;50.870;4.606;2023-07-16T04:14:59;100434.25;;;13.12;55.39
68822;BME280;55834;50.870;4.606;2023-07-16T04:17:25;100446.09;;;13.24;55.16
68822;BME280;55834;50.870;4.606;2023-07-16T04:19:50;100443.59;;;13.40;54.77
68822;BME280;55834;50.870;4.606;2023-07-16T04:22:16;100436.44;;;13.62;54.23
68822;BME280;55834;50.870;4.606;2023-07-16T04:24:41;100436.47;;;13.81;53.59
68822;BME280;55834;50.870;4.606;2023-07-16T04:27:07;100446.38;;;13.18;54.86
68822;BME280;55834;50.870;4.606;2023-07-16T04:29:32;100443.50;;;13.02;55.59
68822;BME280;55834;50.870;4.606;2023-07-16T04:31:58;100443.78;;;12.75;56.15
68822;BME280;55834;50.870;4.606;2023-07-16T04:34:23;100455.00;;;12.60;56.76
68822;BME280;55834;50.870;4.606;2023-07-16T04:36:48;100451.06;;;13.31;54.46
68822;BME280;55834;50.870;4.606;2023-07-16T04:39:14;100452.00;;;13.89;54.28
68822;BME280;55834;50.870;4.606;2023-07-16T04:41:39;100462.03;;;13.63;54.59
68822;BME280;55834;50.870;4.606;2023-07-16T04:44:05;100460.72;;;13.92;53.25
68822;BME280;55834;50.870;4.606;2023-07-16T04:46:30;100467.09;;;13.49;54.24
68822;BME280;55834;50.870;4.606;2023-07-16T04:48:56;100464.78;;;13.99;53.66
68822;BME280;55834;50.870;4.606;2023-07-16T04:51:21;100471.50;;;13.69;53.32
68822;BME280;55834;50.870;4.606;2023-07-16T04:53:47;100473.97;;;13.73;54.23
68822;BME280;55834;50.870;4.606;2023-07-16T04:56:14;100473.53;;;14.02;53.73
68822;BME280;55834;50.870;4.606;2023-07-16T04:58:39;100472.00;;;14.15;53.00
68822;BME280;55834;50.870;4.606;2023-07-16T05:01:05;100484.03;;;14.41;52.90
68822;BME280;55834;50.870;4.606;2023-07-16T05:03:30;100483.03;;;14.43;52.20
68822;BME280;55834;50.870;4.606;2023-07-16T05:05:56;100485.59;;;14.64;52.29
68822;BME280;55834;50.870;4.606;2023-07-16T05:08:21;100487.44;;;14.81;51.54
68822;BME280;55834;50.870;4.606;2023-07-16T05:10:46;100485.47;;;14.84;50.66
68822;BME280;55834;50.870;4.606;2023-07-16T05:13:12;100481.16;;;14.64;51.37
68822;BME280;55834;50.870;4.606;2023-07-16T05:15:37;100488.69;;;14.91;51.43
68822;BME280;55834;50.870;4.606;2023-07-16T05:18:02;100490.09;;;14.44;51.98
68822;BME280;55834;50.870;4.606;2023-07-16T05:20:28;100484.66;;;13.72;53.39
68822;BME280;55834;50.870;4.606;2023-07-16T05:22:53;100476.38;;;14.35;52.58
68822;BME280;55834;50.870;4.606;2023-07-16T05:25:19;100490.34;;;14.38;52.75
68822;BME280;55834;50.870;4.606;2023-07-16T05:27:44;100493.28;;;14.87;52.20
68822;BME280;55834;50.870;4.606;2023-07-16T05:30:10;100484.84;;;15.31;50.59
68822;BME280;55834;50.870;4.606;2023-07-16T05:32:35;100492.03;;;15.64;50.17
68822;BME280;55834;50.870;4.606;2023-07-16T05:35:01;100502.16;;;14.52;52.43
68822;BME280;55834;50.870;4.606;2023-07-16T05:37:26;100502.28;;;14.68;52.05
68822;BME280;55834;50.870;4.606;2023-07-16T05:39:51;100509.72;;;15.30;50.54
68822;BME280;55834;50.870;4.606;2023-07-16T05:42:17;100509.19;;;15.06;51.61
68822;BME280;55834;50.870;4.606;2023-07-16T05:44:42;100510.88;;;15.25;51.61
68822;BME280;55834;50.870;4.606;2023-07-16T05:47:09;100521.41;;;14.57;53.06
68822;BME280;55834;50.870;4.606;2023-07-16T05:49:34;100518.66;;;15.47;51.28
68822;BME280;55834;50.870;4.606;2023-07-16T05:52:00;100518.50;;;15.50;51.15
68822;BME280;55834;50.870;4.606;2023-07-16T05:54:25;100510.44;;;15.85;50.39
68822;BME280;55834;50.870;4.606;2023-07-16T05:56:51;100519.44;;;15.49;50.46
68822;BME280;55834;50.870;4.606;2023-07-16T05:59:16;100516.16;;;15.26;51.47
68822;BME280;55834;50.870;4.606;2023-07-16T06:01:41;100513.66;;;15.41;51.36
68822;BME280;55834;50.870;4.606;2023-07-16T06:04:07;100527.88;;;15.40;51.39
68822;BME280;55834;50.870;4.606;2023-07-16T06:06:32;100528.69;;;16.08;49.34
68822;BME280;55834;50.870;4.606;2023-07-16T06:08:57;100523.66;;;16.19;48.85
68822;BME280;55834;50.870;4.606;2023-07-16T06:11:23;100525.19;;;15.74;50.75
68822;BME280;55834;50.870;4.606;2023-07-16T06:13:48;100532.34;;;15.90;49.68
68822;BME280;55834;50.870;4.606;2023-07-16T06:16:13;100537.41;;;15.26;50.71
68822;BME280;55834;50.870;4.606;2023-07-16T06:18:39;100534.31;;;16.19;50.84
68822;BME280;55834;50.870;4.606;2023-07-16T06:21:04;100529.25;;;16.46;48.94
68822;BME280;55834;50.870;4.606;2023-07-16T06:23:30;100527.81;;;16.08;49.78
68822;BME280;55834;50.870;4.606;2023-07-16T06:25:56;100542.47;;;16.16;49.46
68822;BME280;55834;50.870;4.606;2023-07-16T06:28:22;100540.69;;;16.33;48.60
68822;BME280;55834;50.870;4.606;2023-07-16T06:30:48;100538.78;;;15.35;50.50
68822;BME280;55834;50.870;4.606;2023-07-16T06:33:13;100534.91;;;15.75;52.35
68822;BME280;55834;50.870;4.606;2023-07-16T06:35:39;100544.97;;;15.36;51.54
68822;BME280;55834;50.870;4.606;2023-07-16T06:38:04;100548.50;;;15.87;51.42
68822;BME280;55834;50.870;4.606;2023-07-16T06:40:30;100535.19;;;16.02;50.01
68822;BME280;55834;50.870;4.606;2023-07-16T06:42:56;100531.66;;;16.51;48.54
68822;BME280;55834;50.870;4.606;2023-07-16T06:45:22;100543.22;;;17.13;48.45
68822;BME280;55834;50.870;4.606;2023-07-16T06:47:48;100545.50;;;16.42;49.02
68822;BME280;55834;50.870;4.606;2023-07-16T06:50:13;100544.38;;;16.30;49.25
68822;BME280;55834;50.870;4.606;2023-07-16T06:52:39;100552.91;;;16.53;49.70
68822;BME280;55834;50.870;4.606;2023-07-16T06:55:04;100554.28;;;16.44;48.52
68822;BME280;55834;50.870;4.606;2023-07-16T06:57:30;100545.13;;;16.64;48.99
68822;BME280;55834;50.870;4.606;2023-07-16T06:59:55;100545.63;;;17.02;49.52
68822;BME280;55834;50.870;4.606;2023-07-16T07:02:20;100550.59;;;17.39;48.38
68822;BME280;55834;50.870;4.606;2023-07-16T07:04:46;100552.22;;;17.41;46.88
68822;BME280;55834;50.870;4.606;2023-07-16T07:07:11;100549.25;;;18.04;46.13
68822;BME280;55834;50.870;4.606;2023-07-16T07:09:36;100550.38;;;17.27;47.45
68822;BME280;55834;50.870;4.606;2023-07-16T07:12:02;100557.34;;;17.30;47.23
68822;BME280;55834;50.870;4.606;2023-07-16T07:14:28;100574.25;;;17.75;46.34
68822;BME280;55834;50.870;4.606;2023-07-16T07:16:53;100562.81;;;17.87;46.59
68822;BME280;55834;50.870;4.606;2023-07-16T07:19:18;100568.34;;;17.98;45.80
68822;BME280;55834;50.870;4.606;2023-07-16T07:21:44;100572.97;;;17.66;45.91
68822;BME280;55834;50.870;4.606;2023-07-16T07:24:11;100578.00;;;17.26;48.19
68822;BME280;55834;50.870;4.606;2023-07-16T07:26:36;100580.72;;;17.10;47.22
68822;BME280;55834;50.870;4.606;2023-07-16T07:29:02;100579.91;;;17.54;46.87
68822;BME280;55834;50.870;4.606;2023-07-16T07:31:27;100579.59;;;17.75;47.14
68822;BME280;55834;50.870;4.606;2023-07-16T07:33:52;100587.88;;;16.62;50.35
68822;BME280;55834;50.870;4.606;2023-07-16T07:36:19;100582.34;;;17.43;47.79
68822;BME280;55834;50.870;4.606;2023-07-16T07:38:44;100582.47;;;17.86;47.23
68822;BME280;55834;50.870;4.606;2023-07-16T07:41:09;100591.25;;;17.58;47.14
68822;BME280;55834;50.870;4.606;2023-07-16T07:43:35;100585.88;;;18.17;45.68
68822;BME280;55834;50.870;4.606;2023-07-16T07:46:00;100574.31;;;18.59;45.80
68822;BME280;55834;50.870;4.606;2023-07-16T07:48:25;100588.28;;;18.50;45.57
68822;BME280;55834;50.870;4.606;2023-07-16T07:50:51;100585.09;;;18.58;45.48
68822;BME280;55834;50.870;4.606;2023-07-16T07:53:16;100585.94;;;17.42;47.22
68822;BME280;55834;50.870;4.606;2023-07-16T07:55:44;100589.16;;;17.63;46.31
68822;BME280;55834;50.870;4.606;2023-07-16T07:58:09;100590.53;;;18.42;46.68
68822;BME280;55834;50.870;4.606;2023-07-16T08:00:35;100592.06;;;18.60;44.94
68822;BME280;55834;50.870;4.606;2023-07-16T08:03:00;100596.50;;;18.74;45.01
68822;BME280;55834;50.870;4.606;2023-07-16T08:05:26;100600.00;;;17.90;44.84
68822;BME280;55834;50.870;4.606;2023-07-16T08:07:52;100590.06;;;18.64;46.71
68822;BME280;55834;50.870;4.606;2023-07-16T08:10:18;100597.31;;;18.47;45.89
68822;BME280;55834;50.870;4.606;2023-07-16T08:12:44;100595.25;;;18.10;46.07
68822;BME280;55834;50.870;4.606;2023-07-16T08:15:10;100598.31;;;18.18;45.96
68822;BME280;55834;50.870;4.606;2023-07-16T08:17:43;100586.91;;;18.57;46.70
68822;BME280;55834;50.870;4.606;2023-07-16T08:20:09;100598.66;;;18.26;44.76
68822;BME280;55834;50.870;4.606;2023-07-16T08:22:35;100602.84;;;17.87;48.20
68822;BME280;55834;50.870;4.606;2023-07-16T08:25:00;100607.00;;;18.77;44.83
68822;BME280;55834;50.870;4.606;2023-07-16T08:27:26;100590.69;;;18.82;44.21
68822;BME280;55834;50.870;4.606;2023-07-16T08:29:51;100595.81;;;19.39;43.11
68822;BME280;55834;50.870;4.606;2023-07-16T08:32:17;100594.84;;;18.59;45.86
68822;BME280;55834;50.870;4.606;2023-07-16T08:34:42;100595.22;;;18.94;43.89
68822;BME280;55834;50.870;4.606;2023-07-16T08:37:07;100604.69;;;18.01;45.59
68822;BME280;55834;50.870;4.606;2023-07-16T08:39:33;100608.41;;;17.98;46.12
68822;BME280;55834;50.870;4.606;2023-07-16T08:41:59;100607.41;;;18.71;45.32
68822;BME280;55834;50.870;4.606;2023-07-16T08:44:25;100620.97;;;19.36;43.67
68822;BME280;55834;50.870;4.606;2023-07-16T08:46:51;100611.44;;;19.18;44.04
68822;BME280;55834;50.870;4.606;2023-07-16T08:49:19;100610.59;;;19.45;43.15
68822;BME280;55834;50.870;4.606;2023-07-16T08:51:47;100616.88;;;19.96;42.69
68822;BME280;55834;50.870;4.606;2023-07-16T08:54:13;100613.50;;;19.54;43.14
68822;BME280;55834;50.870;4.606;2023-07-16T08:56:42;100619.44;;;19.32;44.64
68822;BME280;55834;50.870;4.606;2023-07-16T08:59:10;100615.56;;;19.76;42.34
68822;BME280;55834;50.870;4.606;2023-07-16T09:01:39;100629.66;;;19.53;43.48
68822;BME280;55834;50.870;4.606;2023-07-16T09:04:04;100632.41;;;19.38;42.79
68822;BME280;55834;50.870;4.606;2023-07-16T09:06:30;100632.97;;;20.09;42.42
68822;BME280;55834;50.870;4.606;2023-07-16T09:08:55;100639.63;;;20.03;42.14
68822;BME280;55834;50.870;4.606;2023-07-16T09:11:21;100629.03;;;19.62;41.41
68822;BME280;55834;50.870;4.606;2023-07-16T09:13:48;100633.31;;;18.98;44.12
68822;BME280;55834;50.870;4.606;2023-07-16T09:16:14;100637.47;;;17.58;45.75
68822;BME280;55834;50.870;4.606;2023-07-16T09:18:42;100632.75;;;18.51;45.78
68822;BME280;55834;50.870;4.606;2023-07-16T09:21:07;100654.03;;;18.67;44.50
68822;BME280;55834;50.870;4.606;2023-07-16T09:23:33;100638.56;;;18.29;44.39
68822;BME280;55834;50.870;4.606;2023-07-16T09:25:58;100648.59;;;18.54;44.07
68822;BME280;55834;50.870;4.606;2023-07-16T09:28:24;100648.88;;;18.64;43.38
68822;BME280;55834;50.870;4.606;2023-07-16T09:30:52;100647.50;;;19.12;43.62
68822;BME280;55834;50.870;4.606;2023-07-16T09:33:22;100654.66;;;19.12;44.14
68822;BME280;55834;50.870;4.606;2023-07-16T09:35:51;100648.91;;;18.91;43.19
68822;BME280;55834;50.870;4.606;2023-07-16T09:38:17;100641.75;;;18.91;44.41
68822;BME280;55834;50.870;4.606;2023-07-16T09:40:43;100655.53;;;18.85;43.79
68822;BME280;55834;50.870;4.606;2023-07-16T09:43:09;100656.56;;;18.83;43.58
68822;BME280;55834;50.870;4.606;2023-07-16T09:45:36;100655.47;;;19.00;43.66
68822;BME280;55834;50.870;4.606;2023-07-16T09:48:02;100650.00;;;19.01;44.61
68822;BME280;55834;50.870;4.606;2023-07-16T09:50:29;100658.59;;;18.08;44.72
68822;BME280;55834;50.870;4.606;2023-07-16T09:52:58;100665.97;;;18.47;44.86
68822;BME280;55834;50.870;4.606;2023-07-16T09:55:31;100663.34;;;19.15;44.00
68822;BME280;55834;50.870;4.606;2023-07-16T09:58:00;100658.09;;;19.68;43.03
68822;BME280;55834;50.870;4.606;2023-07-16T10:00:27;100654.16;;;19.34;44.00
68822;BME280;55834;50.870;4.606;2023-07-16T10:02:54;100665.88;;;19.46;42.96
68822;BME280;55834;50.870;4.606;2023-07-16T10:05:24;100657.31;;;18.99;44.78
68822;BME280;55834;50.870;4.606;2023-07-16T10:07:52;100667.56;;;19.47;44.07
68822;BME280;55834;50.870;4.606;2023-07-16T10:10:18;100676.72;;;19.57;43.68
68822;BME280;55834;50.870;4.606;2023-07-16T10:12:55;100679.19;;;19.33;43.79
68822;BME280;55834;50.870;4.606;2023-07-16T10:15:27;100681.59;;;19.90;41.92
68822;BME280;55834;50.870;4.606;2023-07-16T10:17:53;100677.13;;;20.03;41.67
68822;BME280;55834;50.870;4.606;2023-07-16T10:20:37;100684.28;;;18.82;43.23
68822;BME280;55834;50.870;4.606;2023-07-16T10:23:18;100690.16;;;19.43;43.56
68822;BME280;55834;50.870;4.606;2023-07-16T10:25:59;100684.66;;;19.31;43.31
68822;BME280;55834;50.870;4.606;2023-07-16T10:28:25;100686.47;;;18.75;43.96
68822;BME280;55834;50.870;4.606;2023-07-16T10:30:50;100691.84;;;19.31;43.17
68822;BME280;55834;50.870;4.606;2023-07-16T10:33:16;100698.91;;;18.76;43.08
68822;BME280;55834;50.870;4.606;2023-07-16T10:35:42;100703.91;;;19.09;42.69
68822;BME280;55834;50.870;4.606;2023-07-16T10:38:08;100708.91;;;18.44;43.42
68822;BME280;55834;50.870;4.606;2023-07-16T10:40:39;100711.44;;;18.61;43.01
68822;BME280;55834;50.870;4.606;2023-07-16T10:43:05;100713.38;;;18.43;44.01
68822;BME280;55834;50.870;4.606;2023-07-16T10:45:31;100710.31;;;18.07;44.57
68822;BME280;55834;50.870;4.606;2023-07-16T10:47:56;100702.06;;;19.10;42.74
68822;BME280;55834;50.870;4.606;2023-07-16T10:50:22;100718.22;;;18.81;42.86
68822;BME280;55834;50.870;4.606;2023-07-16T10:52:56;100722.97;;;18.76;43.64
68822;BME280;55834;50.870;4.606;2023-07-16T10:55:22;100718.97;;;18.69;42.88
68822;BME280;55834;50.870;4.606;2023-07-16T10:57:49;100725.31;;;18.95;43.34
68822;BME280;55834;50.870;4.606;2023-07-16T11:00:16;100723.13;;;19.16;43.56
68822;BME280;55834;50.870;4.606;2023-07-16T11:02:43;100732.78;;;19.04;44.08
68822;BME280;55834;50.870;4.606;2023-07-16T11:05:12;100733.41;;;19.22;44.96
68822;BME280;55834;50.870;4.606;2023-07-16T11:07:48;100718.81;;;19.28;46.44
68822;BME280;55834;50.870;4.606;2023-07-16T11:10:17;100725.72;;;19.72;45.47
68822;BME280;55834;50.870;4.606;2023-07-16T11:12:43;100727.03;;;20.32;43.75
68822;BME280;55834;50.870;4.606;2023-07-16T11:15:08;100729.44;;;19.69;43.91
68822;BME280;55834;50.870;4.606;2023-07-16T11:17:37;100727.97;;;19.78;43.55
68822;BME280;55834;50.870;4.606;2023-07-16T11:20:02;100731.38;;;20.45;43.35
68822;BME280;55834;50.870;4.606;2023-07-16T11:22:29;100734.94;;;20.46;42.22
68822;BME280;55834;50.870;4.606;2023-07-16T11:24:54;100734.75;;;20.49;40.63
68822;BME280;55834;50.870;4.606;2023-07-16T11:29:57;100737.16;;;20.01;42.43
68822;BME280;55834;50.870;4.606;2023-07-16T11:34:56;100736.78;;;19.11;42.69
68822;BME280;55834;50.870;4.606;2023-07-16T11:37:22;100737.88;;;18.80;45.66
68822;BME280;55834;50.870;4.606;2023-07-16T11:39:49;100730.19;;;19.03;45.13
68822;BME280;55834;50.870;4.606;2023-07-16T11:42:19;100729.72;;;19.92;42.61
68822;BME280;55834;50.870;4.606;2023-07-16T11:44:49;100732.81;;;19.86;42.81
68822;BME280;55834;50.870;4.606;2023-07-16T11:47:14;100732.13;;;20.22;42.12
68822;BME280;55834;50.870;4.606;2023-07-16T11:49:40;100736.66;;;19.27;42.74
68822;BME280;55834;50.870;4.606;2023-07-16T11:52:05;100741.38;;;19.91;41.67
68822;BME280;55834;50.870;4.606;2023-07-16T11:54:31;100737.38;;;19.44;42.07
68822;BME280;55834;50.870;4.606;2023-07-16T11:56:56;100733.94;;;19.69;42.11
68822;BME280;55834;50.870;4.606;2023-07-16T11:59:21;100743.94;;;19.11;43.95
68822;BME280;55834;50.870;4.606;2023-07-16T12:01:48;100746.81;;;19.08;43.86
68822;BME280;55834;50.870;4.606;2023-07-16T12:04:15;100753.72;;;18.83;43.80
68822;BME280;55834;50.870;4.606;2023-07-16T12:06:41;100754.75;;;18.66;44.70
68822;BME280;55834;50.870;4.606;2023-07-16T12:09:07;100747.91;;;18.77;46.87
68822;BME280;55834;50.870;4.606;2023-07-16T12:11:32;100749.13;;;19.00;45.55
68822;BME280;55834;50.870;4.606;2023-07-16T12:13:57;100736.31;;;19.46;45.72
68822;BME280;55834;50.870;4.606;2023-07-16T12:16:23;100743.72;;;19.97;43.93
68822;BME280;55834;50.870;4.606;2023-07-16T12:18:48;100733.97;;;20.21;42.26
68822;BME280;55834;50.870;4.606;2023-07-16T12:21:14;100734.72;;;20.36;43.00
68822;BME280;55834;50.870;4.606;2023-07-16T12:23:39;100728.41;;;20.50;41.01
68822;BME280;55834;50.870;4.606;2023-07-16T12:26:05;100731.94;;;20.76;40.47
68822;BME280;55834;50.870;4.606;2023-07-16T12:28:30;100718.72;;;20.60;42.36
68822;BME280;55834;50.870;4.606;2023-07-16T12:30:56;100731.72;;;20.15;41.60
68822;BME280;55834;50.870;4.606;2023-07-16T12:33:21;100721.84;;;20.03;41.98
68822;BME280;55834;50.870;4.606;2023-07-16T12:35:47;100720.66;;;21.21;40.22
68822;BME280;55834;50.870;4.606;2023-07-16T12:38:12;100724.53;;;21.16;38.77
68822;BME280;55834;50.870;4.606;2023-07-16T12:40:38;100728.72;;;20.71;41.28
68822;BME280;55834;50.870;4.606;2023-07-16T12:43:06;100720.25;;;21.14;38.63
68822;BME280;55834;50.870;4.606;2023-07-16T12:45:32;100728.84;;;21.19;39.94
68822;BME280;55834;50.870;4.606;2023-07-16T12:47:58;100719.03;;;21.55;39.23
68822;BME280;55834;50.870;4.606;2023-07-16T12:50:26;100717.91;;;21.81;37.70